Time;durP1;ratioP1;P1;durP2;ratioP2;P2;SDS_P1;SDS_P2;PMS_P1;PMS_P2;Temp;Humidity;BMP_temperature;BMP_pressure;BME280_temperature;BME280_humidity;BME280_pressure;Samples;Min_cycle;Max_cycle;Signal;HPM_P1;HPM_P2
2021/10/22 00:00:12;;;;;;;2.73;2.47;;;;;;;7.55;100.00;96632.56;5086471;28;20510;-66
2021/10/22 00:02:38;;;;;;;2.30;2.20;;;;;;;7.61;100.00;96642.94;5080769;28;20235;-66
2021/10/22 00:05:04;;;;;;;3.13;2.63;;;;;;;7.69;100.00;96645.28;5093046;28;20713;-66
2021/10/22 00:07:30;;;;;;;2.43;2.23;;;;;;;7.82;100.00;96652.22;5082310;28;20583;-66
2021/10/22 00:09:57;;;;;;;3.13;2.57;;;;;;;7.74;100.00;96640.25;5086712;28;20205;-66
2021/10/22 00:12:22;;;;;;;4.77;2.67;;;;;;;7.64;100.00;96644.31;5087660;28;20165;-66
2021/10/22 00:14:48;;;;;;;3.07;2.13;;;;;;;7.50;100.00;96654.84;5092145;28;20265;-66
2021/10/22 00:17:13;;;;;;;3.27;2.40;;;;;;;7.65;100.00;96648.53;5080122;28;20347;-66
2021/10/22 00:19:39;;;;;;;3.03;2.20;;;;;;;7.47;100.00;96652.66;5088569;28;20274;-66
2021/10/22 00:22:04;;;;;;;4.50;2.70;;;;;;;7.44;100.00;96649.66;5076724;28;20219;-66
2021/10/22 00:24:30;;;;;;;1.90;1.80;;;;;;;7.36;100.00;96652.50;5090161;28;20294;-66
2021/10/22 00:26:56;;;;;;;2.73;1.93;;;;;;;7.26;100.00;96655.59;5093814;28;20295;-65
2021/10/22 00:29:21;;;;;;;9.70;2.23;;;;;;;7.25;100.00;96650.56;5080213;28;20511;-66
2021/10/22 00:31:47;;;;;;;4.57;1.77;;;;;;;7.23;100.00;96666.44;5088124;28;20231;-66
2021/10/22 00:34:12;;;;;;;2.33;2.00;;;;;;;7.05;100.00;96672.31;5080419;28;20263;-66
2021/10/22 00:36:38;;;;;;;4.27;1.80;;;;;;;6.96;100.00;96670.16;5065468;28;20182;-66
2021/10/22 00:39:05;;;;;;;3.23;1.90;;;;;;;7.03;100.00;96673.53;5088680;28;20609;-66
2021/10/22 00:41:32;;;;;;;4.63;1.77;;;;;;;7.03;100.00;96665.72;5091343;28;20209;-66
2021/10/22 00:43:57;;;;;;;2.40;1.73;;;;;;;6.98;100.00;96673.34;5082704;28;20177;-68
2021/10/22 00:46:27;;;;;;;1.90;1.60;;;;;;;7.06;100.00;96676.53;5082879;28;20268;-66
2021/10/22 00:48:53;;;;;;;5.00;2.07;;;;;;;7.02;100.00;96674.56;5093281;28;20172;-66
2021/10/22 00:51:19;;;;;;;2.00;1.80;;;;;;;7.13;100.00;96686.13;5078756;28;20215;-66
2021/10/22 00:53:45;;;;;;;2.73;1.33;;;;;;;7.12;100.00;96674.09;5086940;28;20210;-66
2021/10/22 00:56:11;;;;;;;2.10;1.77;;;;;;;7.24;100.00;96681.06;5092359;28;20705;-66
2021/10/22 00:58:37;;;;;;;3.53;1.60;;;;;;;7.07;100.00;96683.34;5084302;28;20213;-66
2021/10/22 01:01:03;;;;;;;4.63;1.90;;;;;;;7.04;100.00;96673.31;5089009;28;20259;-67
2021/10/22 01:03:29;;;;;;;1.60;1.50;;;;;;;7.14;100.00;96679.88;5084420;28;20263;-66
2021/10/22 01:05:54;;;;;;;4.73;1.80;;;;;;;6.89;100.00;96682.41;5079769;28;20270;-66
2021/10/22 01:08:21;;;;;;;1.57;1.40;;;;;;;7.01;100.00;96683.38;5086737;28;20173;-66
2021/10/22 01:10:48;;;;;;;2.60;1.63;;;;;;;7.05;100.00;96681.94;5086115;28;20165;-66
2021/10/22 01:13:13;;;;;;;1.90;1.80;;;;;;;7.17;100.00;96682.09;5079064;28;20177;-66
2021/10/22 01:15:39;;;;;;;1.87;1.70;;;;;;;7.07;100.00;96685.97;5091135;28;20196;-66
2021/10/22 01:18:05;;;;;;;5.83;2.27;;;;;;;7.30;100.00;96693.25;5083295;28;20213;-66
2021/10/22 01:20:30;;;;;;;3.90;1.83;;;;;;;7.37;100.00;96699.25;5064526;28;20173;-66
2021/10/22 01:22:56;;;;;;;3.10;1.67;;;;;;;7.49;100.00;96688.94;5079126;28;20173;-66
2021/10/22 01:25:28;;;;;;;4.37;1.70;;;;;;;7.82;99.83;96696.56;5089732;28;20356;-66
2021/10/22 01:27:55;;;;;;;1.77;1.67;;;;;;;7.68;100.00;96692.47;5083714;28;20173;-66
2021/10/22 01:30:23;;;;;;;1.83;1.60;;;;;;;7.74;99.76;96692.44;5086412;28;20169;-66
2021/10/22 01:32:52;;;;;;;1.80;1.70;;;;;;;7.50;100.00;96698.38;5076024;28;20223;-66
2021/10/22 01:35:17;;;;;;;1.80;1.70;;;;;;;7.52;100.00;96694.53;5072560;28;20558;-66
2021/10/22 01:37:43;;;;;;;3.53;1.60;;;;;;;7.49;100.00;96700.19;5075778;28;20196;-66
2021/10/22 01:40:10;;;;;;;2.03;1.37;;;;;;;7.68;100.00;96698.47;5081243;28;20195;-66
2021/10/22 01:42:35;;;;;;;1.57;1.50;;;;;;;7.90;98.83;96694.53;5083270;28;20664;-66
2021/10/22 01:45:01;;;;;;;2.80;2.00;;;;;;;7.78;99.01;96688.38;5088664;28;20192;-66
2021/10/22 01:47:27;;;;;;;1.67;1.57;;;;;;;7.72;99.99;96694.44;5081905;28;20211;-66
2021/10/22 01:49:53;;;;;;;1.47;1.33;;;;;;;7.79;98.42;96691.78;5089162;28;20173;-66
2021/10/22 01:52:19;;;;;;;5.37;1.90;;;;;;;7.66;99.18;96692.66;5082841;28;20180;-66
2021/10/22 01:54:45;;;;;;;1.67;1.57;;;;;;;7.65;99.87;96701.50;5079869;28;20557;-66
2021/10/22 01:57:11;;;;;;;4.20;1.70;;;;;;;7.67;100.00;96698.69;5090268;28;20238;-66
2021/10/22 01:59:37;;;;;;;2.27;1.50;;;;;;;7.73;99.88;96697.84;5075128;28;20185;-66
2021/10/22 02:02:05;;;;;;;1.33;1.30;;;;;;;7.87;99.09;96700.16;5080283;28;20165;-66
2021/10/22 02:04:31;;;;;;;1.60;1.50;;;;;;;7.77;99.11;96705.03;5084178;28;20211;-66
2021/10/22 02:06:57;;;;;;;1.40;1.30;;;;;;;7.56;98.22;96702.75;5087282;28;20176;-66
2021/10/22 02:09:22;;;;;;;3.87;2.00;;;;;;;7.65;98.66;96708.50;5088623;28;20214;-66
2021/10/22 02:11:48;;;;;;;3.40;1.30;;;;;;;7.60;99.17;96705.75;5078719;28;20248;-66
2021/10/22 02:14:16;;;;;;;5.07;1.60;;;;;;;7.73;98.27;96705.66;5085434;28;20183;-66
2021/10/22 02:16:44;;;;;;;2.03;1.40;;;;;;;7.62;98.73;96709.75;5080479;28;20179;-66
2021/10/22 02:19:10;;;;;;;2.67;1.30;;;;;;;7.69;98.33;96710.50;5089591;28;20192;-66
2021/10/22 02:21:36;;;;;;;2.90;1.40;;;;;;;7.70;96.90;96708.69;5079722;28;20183;-66
2021/10/22 02:24:02;;;;;;;4.43;1.27;;;;;;;7.57;97.93;96706.16;5083671;28;20248;-66
2021/10/22 02:26:27;;;;;;;5.00;1.73;;;;;;;7.46;98.93;96707.63;5081456;28;20185;-66
2021/10/22 02:28:52;;;;;;;1.53;1.10;;;;;;;7.60;98.63;96710.97;5081660;28;20252;-66
2021/10/22 02:31:19;;;;;;;1.43;1.17;;;;;;;7.50;98.92;96719.25;5089898;28;20169;-66
2021/10/22 02:33:46;;;;;;;4.30;1.20;;;;;;;7.45;98.87;96719.06;5081258;28;20200;-66
2021/10/22 02:36:12;;;;;;;5.17;1.30;;;;;;;7.34;99.10;96715.31;5081977;28;20197;-66
2021/10/22 02:38:37;;;;;;;1.30;1.20;;;;;;;7.19;99.94;96713.97;5082143;28;20182;-66
2021/10/22 02:41:03;;;;;;;2.53;1.27;;;;;;;7.12;100.00;96718.41;5090194;28;20176;-66
2021/10/22 02:43:28;;;;;;;5.03;1.27;;;;;;;7.13;99.68;96720.00;5085075;28;20260;-66
2021/10/22 02:45:54;;;;;;;2.00;1.30;;;;;;;6.94;100.00;96714.66;5091034;28;20224;-66
2021/10/22 02:48:19;;;;;;;3.70;1.63;;;;;;;7.07;99.48;96719.84;5085147;28;20173;-66
2021/10/22 02:50:45;;;;;;;5.30;1.67;;;;;;;7.06;99.76;96720.03;5081042;28;20176;-66
2021/10/22 02:53:10;;;;;;;3.90;1.40;;;;;;;6.98;99.68;96728.06;5075336;28;20199;-66
2021/10/22 02:55:36;;;;;;;3.27;1.77;;;;;;;7.02;99.22;96734.50;5084547;28;20638;-66
2021/10/22 02:58:01;;;;;;;3.93;1.60;;;;;;;6.89;99.63;96726.69;5078067;28;20674;-66
2021/10/22 03:00:27;;;;;;;7.23;1.67;;;;;;;6.99;98.41;96727.06;5077831;28;20252;-66
2021/10/22 03:02:52;;;;;;;4.53;1.73;;;;;;;6.77;99.41;96729.13;5085844;28;20545;-66
2021/10/22 03:05:18;;;;;;;2.00;1.37;;;;;;;6.82;97.40;96731.91;5085882;28;20276;-66
2021/10/22 03:07:43;;;;;;;4.27;1.90;;;;;;;6.71;98.54;96727.34;5087427;28;20165;-66
2021/10/22 03:10:09;;;;;;;2.07;1.37;;;;;;;6.71;98.88;96742.16;5078422;28;20542;-66
2021/10/22 03:12:35;;;;;;;5.07;1.40;;;;;;;6.61;99.02;96732.16;5089304;28;20168;-66
2021/10/22 03:15:03;;;;;;;2.17;1.33;;;;;;;6.51;99.72;96745.59;5080852;28;20244;-66
2021/10/22 03:17:28;;;;;;;4.07;1.60;;;;;;;6.50;98.86;96745.78;5081938;28;20223;-66
2021/10/22 03:19:54;;;;;;;4.57;1.30;;;;;;;6.42;99.39;96736.38;5081280;28;20165;-66
2021/10/22 03:22:19;;;;;;;4.17;1.87;;;;;;;6.39;97.98;96739.41;5089758;28;20525;-66
2021/10/22 03:24:45;;;;;;;4.47;1.63;;;;;;;6.46;97.81;96740.19;5076764;28;20196;-66
2021/10/22 03:27:12;;;;;;;5.43;1.53;;;;;;;6.37;98.05;96745.78;5084774;28;20188;-66
2021/10/22 03:29:38;;;;;;;7.33;1.63;;;;;;;6.41;97.18;96752.22;5082999;28;20888;-66
2021/10/22 03:32:04;;;;;;;8.00;1.60;;;;;;;6.39;97.78;96746.41;5081684;28;20174;-66
2021/10/22 03:34:30;;;;;;;3.53;1.67;;;;;;;6.33;97.79;96752.41;5074523;28;20275;-66
2021/10/22 03:36:56;;;;;;;6.33;1.50;;;;;;;6.32;97.67;96758.59;5085262;28;20188;-66
2021/10/22 03:39:22;;;;;;;6.90;1.63;;;;;;;6.25;97.88;96753.41;5091122;28;20225;-66
2021/10/22 03:41:47;;;;;;;5.60;1.50;;;;;;;6.30;96.34;96745.78;5076179;28;20264;-66
2021/10/22 03:44:12;;;;;;;3.13;1.60;;;;;;;6.22;96.80;96751.22;5073124;28;20181;-66
2021/10/22 03:46:38;;;;;;;6.33;1.50;;;;;;;6.12;98.04;96746.41;5087408;28;20180;-66
2021/10/22 03:49:04;;;;;;;2.37;1.63;;;;;;;6.13;97.16;96747.22;5074882;28;20603;-66
2021/10/22 03:51:29;;;;;;;3.27;1.50;;;;;;;6.13;96.41;96750.59;5084310;28;20189;-66
2021/10/22 03:53:55;;;;;;;2.57;1.27;;;;;;;5.99;97.71;96753.38;5082814;28;20259;-66
2021/10/22 03:56:21;;;;;;;6.30;1.50;;;;;;;5.98;98.26;96769.97;5086988;28;20232;-67
2021/10/22 03:58:46;;;;;;;11.40;1.90;;;;;;;6.03;97.88;96768.38;5088218;28;20197;-66
2021/10/22 04:01:13;;;;;;;3.77;1.83;;;;;;;6.01;98.23;96760.00;5076357;28;20231;-66
2021/10/22 04:03:38;;;;;;;4.87;1.83;;;;;;;5.91;98.60;96767.38;5087673;28;20252;-65
2021/10/22 04:06:04;;;;;;;5.73;2.00;;;;;;;6.10;97.09;96771.81;5081850;28;20275;-66
2021/10/22 04:08:29;;;;;;;7.30;1.80;;;;;;;5.97;97.87;96782.19;5080631;28;20200;-66
2021/10/22 04:10:55;;;;;;;6.03;1.43;;;;;;;6.13;95.48;96770.63;5088803;28;20176;-66
2021/10/22 04:13:21;;;;;;;3.43;1.30;;;;;;;5.90;97.24;96770.19;5086377;28;20259;-66
2021/10/22 04:15:48;;;;;;;5.20;2.13;;;;;;;5.85;98.02;96788.97;5082937;28;20203;-66
2021/10/22 04:18:15;;;;;;;6.03;1.30;;;;;;;5.88;97.70;96785.19;5086724;28;20200;-66
2021/10/22 04:20:41;;;;;;;6.43;1.87;;;;;;;5.79;98.61;96785.34;5088872;28;20176;-66
2021/10/22 04:23:08;;;;;;;5.40;1.77;;;;;;;5.78;98.83;96782.94;5079930;28;20712;-66
2021/10/22 04:25:34;;;;;;;10.17;1.47;;;;;;;5.81;98.74;96778.13;5092448;28;20203;-65
2021/10/22 04:28:01;;;;;;;3.30;1.70;;;;;;;5.73;98.97;96782.72;5083458;28;20248;-66
2021/10/22 04:30:26;;;;;;;3.97;1.43;;;;;;;5.98;96.93;96783.78;5086198;28;20180;-66
2021/10/22 04:32:52;;;;;;;3.73;1.60;;;;;;;5.82;97.34;96781.53;5078061;28;20178;-66
2021/10/22 04:35:18;;;;;;;8.00;1.90;;;;;;;5.80;97.08;96786.91;5094494;28;20207;-67
2021/10/22 04:40:31;;;;;;;4.43;1.60;;;;;;;5.75;97.43;96786.72;5082488;28;20230;-66
2021/10/22 04:43:09;;;;;;;2.97;1.20;;;;;;;5.73;97.34;96798.31;5092491;28;20272;-66
2021/10/22 04:45:36;;;;;;;6.10;2.37;;;;;;;5.75;97.03;96797.13;5081603;28;20204;-66
2021/10/22 04:48:04;;;;;;;8.60;2.50;;;;;;;5.77;96.76;96792.53;5084902;28;20673;-66
2021/10/22 04:50:31;;;;;;;5.50;1.63;;;;;;;5.80;96.66;96791.31;5082921;28;20178;-66
2021/10/22 04:52:57;;;;;;;4.50;1.80;;;;;;;5.94;96.11;96779.19;5091899;28;20177;-66
2021/10/22 04:55:25;;;;;;;5.53;1.50;;;;;;;5.77;97.00;96782.13;5080578;28;20228;-66
2021/10/22 04:57:51;;;;;;;4.37;1.50;;;;;;;5.64;97.96;96776.88;5087763;28;20193;-70
2021/10/22 05:00:17;;;;;;;7.10;2.03;;;;;;;5.69;97.89;96773.69;5079750;28;20164;-67
2021/10/22 05:02:44;;;;;;;7.40;1.77;;;;;;;5.70;97.07;96780.50;5091663;28;20208;-66
2021/10/22 05:05:10;;;;;;;2.37;1.57;;;;;;;5.70;97.34;96785.69;5080913;28;20193;-67
2021/10/22 05:07:36;;;;;;;11.20;2.20;;;;;;;5.76;96.34;96779.72;5091884;28;20199;-67
2021/10/22 05:10:02;;;;;;;4.50;2.13;;;;;;;5.83;95.72;96778.75;5086985;28;20707;-66
2021/10/22 05:12:27;;;;;;;6.83;1.93;;;;;;;5.69;96.52;96779.69;5080088;28;20584;-66
2021/10/22 05:14:53;;;;;;;9.57;1.73;;;;;;;5.70;96.57;96775.28;5089655;28;20197;-67
2021/10/22 05:17:18;;;;;;;7.10;1.50;;;;;;;5.59;96.82;96787.06;5079270;28;20170;-67
2021/10/22 05:19:44;;;;;;;9.17;2.23;;;;;;;5.54;97.52;96786.03;5064203;28;20172;-67
2021/10/22 05:22:09;;;;;;;16.00;2.20;;;;;;;5.69;96.58;96786.69;5080795;28;20534;-67
2021/10/22 05:24:35;;;;;;;5.97;1.93;;;;;;;5.54;96.82;96781.66;5078499;28;20681;-67
2021/10/22 05:27:02;;;;;;;9.10;2.23;;;;;;;5.57;97.32;96796.06;5093546;28;20191;-67
2021/10/22 05:29:28;;;;;;;5.90;1.70;;;;;;;5.57;96.83;96793.47;5080026;28;20173;-67
2021/10/22 05:31:53;;;;;;;6.27;1.93;;;;;;;5.37;98.06;96785.56;5091172;28;20241;-67
2021/10/22 05:34:22;;;;;;;4.03;1.60;;;;;;;5.55;97.02;96792.84;5093302;28;20201;-67
2021/10/22 05:36:52;;;;;;;5.77;1.67;;;;;;;5.40;97.40;96793.81;5082656;28;20177;-67
2021/10/22 05:39:20;;;;;;;10.00;2.40;;;;;;;5.39;97.60;96792.19;5085677;28;20204;-67
2021/10/22 05:41:47;;;;;;;8.23;2.70;;;;;;;5.36;97.72;96795.16;5088122;28;20531;-67
2021/10/22 05:44:18;;;;;;;8.67;2.00;;;;;;;5.25;99.30;96805.31;5094143;28;20184;-66
2021/10/22 05:46:45;;;;;;;3.23;1.87;;;;;;;5.23;98.77;96813.31;5093477;28;20184;-67
2021/10/22 05:49:11;;;;;;;4.70;1.80;;;;;;;5.21;99.32;96809.28;5077470;28;20278;-66
2021/10/22 05:51:36;;;;;;;4.60;1.97;;;;;;;5.49;97.84;96801.41;5084893;28;20188;-65
2021/10/22 05:54:02;;;;;;;4.93;1.70;;;;;;;5.31;98.31;96812.34;5080862;28;20189;-66
2021/10/22 05:56:27;;;;;;;7.10;1.60;;;;;;;5.27;99.16;96811.94;5091483;28;20224;-66
2021/10/22 05:58:53;;;;;;;9.00;1.97;;;;;;;5.29;98.48;96814.34;5082315;28;20202;-66
2021/10/22 06:01:18;;;;;;;2.80;1.90;;;;;;;5.25;98.53;96808.72;5091312;28;20641;-66
2021/10/22 06:03:44;;;;;;;8.23;2.30;;;;;;;5.28;98.40;96817.94;5072529;28;20230;-66
2021/10/22 06:06:10;;;;;;;8.23;2.03;;;;;;;5.21;98.24;96817.88;5080172;28;20201;-67
2021/10/22 06:08:36;;;;;;;3.13;2.13;;;;;;;5.25;98.57;96818.28;5056600;28;20191;-68
2021/10/22 06:11:04;;;;;;;5.63;2.50;;;;;;;5.31;98.21;96820.94;5090921;28;20191;-67
2021/10/22 06:13:29;;;;;;;5.53;2.20;;;;;;;5.33;98.01;96818.16;5080307;28;20540;-67
2021/10/22 06:15:55;;;;;;;5.07;1.93;;;;;;;5.63;96.73;96823.88;5083402;28;20200;-67
2021/10/22 06:18:20;;;;;;;5.60;2.00;;;;;;;5.52;97.37;96820.03;5081116;28;20201;-67
2021/10/22 06:21:01;;;;;;;7.17;2.27;;;;;;;5.57;97.17;96827.25;5073522;28;20200;-67
2021/10/22 06:26:10;;;;;;;6.00;1.93;;;;;;;5.89;96.28;96828.41;5084558;28;20211;-66
2021/10/22 06:28:35;;;;;;;4.10;2.03;;;;;;;5.78;96.73;96834.94;5091693;28;20177;-67
2021/10/22 06:31:01;;;;;;;3.43;2.10;;;;;;;5.75;97.34;96840.50;5077547;28;20243;-66
2021/10/22 06:33:26;;;;;;;8.77;2.30;;;;;;;5.83;96.37;96843.75;5059249;28;20532;-70
2021/10/22 06:35:54;;;;;;;3.10;2.60;;;;;;;5.68;96.99;96855.31;5074917;28;20561;-69
2021/10/22 06:38:20;;;;;;;9.57;2.37;;;;;;;6.04;97.61;96852.44;5085505;28;20203;-68
2021/10/22 06:40:45;;;;;;;4.50;2.03;;;;;;;6.24;96.09;96861.13;5059159;28;20189;-63
2021/10/22 06:43:11;;;;;;;5.03;2.40;;;;;;;6.34;95.38;96866.75;5090258;28;20185;-65
2021/10/22 06:45:36;;;;;;;3.90;2.03;;;;;;;6.43;94.83;96859.53;5082841;28;20205;-64
2021/10/22 06:48:02;;;;;;;6.73;1.90;;;;;;;6.49;93.92;96871.75;5077711;28;20622;-63
2021/10/22 06:50:28;;;;;;;4.07;2.50;;;;;;;6.56;93.46;96869.97;5103024;28;20176;-64
2021/10/22 06:52:54;;;;;;;5.57;2.00;;;;;;;6.62;94.09;96869.97;5076368;28;20211;-64
2021/10/22 06:55:20;;;;;;;3.60;1.80;;;;;;;6.80;93.12;96876.41;5081571;28;20232;-63
2021/10/22 06:57:45;;;;;;;6.43;2.67;;;;;;;6.84;92.90;96880.19;5072132;28;20205;-63
2021/10/22 07:00:11;;;;;;;8.47;2.40;;;;;;;6.99;92.10;96880.78;5071596;28;20177;-63
2021/10/22 07:02:50;;;;;;;4.27;1.97;;;;;;;7.12;90.64;96885.19;5059681;28;20234;-63
2021/10/22 07:07:57;;;;;;;10.73;2.60;;;;;;;7.14;90.14;96891.81;5067423;28;20165;-63
2021/10/22 07:10:23;;;;;;;4.60;2.50;;;;;;;7.21;90.47;96897.81;5063284;28;20655;-63
2021/10/22 07:12:49;;;;;;;5.43;2.33;;;;;;;7.40;88.48;96901.41;5064883;28;20180;-63
2021/10/22 07:15:16;;;;;;;8.73;2.50;;;;;;;7.50;86.68;96912.22;5068877;28;20283;-62
2021/10/22 07:17:44;;;;;;;11.10;2.47;;;;;;;7.57;86.47;96912.22;5063869;28;20200;-62
2021/10/22 07:20:11;;;;;;;7.80;1.87;;;;;;;7.48;87.01;96914.22;5057493;28;20235;-63
2021/10/22 07:22:45;;;;;;;5.93;1.83;;;;;;;7.57;85.92;96923.44;5052415;28;20170;-63
2021/10/22 07:25:11;;;;;;;9.70;2.30;;;;;;;7.60;85.66;96932.66;5052344;28;20585;-63
2021/10/22 07:27:36;;;;;;;6.10;1.90;;;;;;;7.67;85.12;96931.66;5056636;28;20189;-63
2021/10/22 07:30:03;;;;;;;13.07;2.90;;;;;;;7.93;83.90;96941.19;5067174;28;20165;-63
2021/10/22 07:32:28;;;;;;;5.10;2.70;;;;;;;7.91;83.06;96936.19;5062575;28;20641;-63
2021/10/22 07:34:54;;;;;;;5.43;1.70;;;;;;;8.02;82.07;96949.63;5066256;28;20236;-63
2021/10/22 07:37:19;;;;;;;5.47;2.00;;;;;;;8.06;82.19;96958.63;5064418;28;20538;-63
2021/10/22 07:39:44;;;;;;;11.43;3.10;;;;;;;8.20;81.42;96955.75;5056716;28;20205;-63
2021/10/22 07:42:10;;;;;;;5.47;1.97;;;;;;;8.31;79.81;96952.53;5065018;28;20324;-63
2021/10/22 07:44:35;;;;;;;6.17;2.20;;;;;;;8.55;79.86;96955.44;5067372;28;20204;-63
2021/10/22 07:47:01;;;;;;;9.90;1.93;;;;;;;8.57;79.51;96963.88;5074002;28;20227;-64
2021/10/22 07:49:27;;;;;;;7.07;1.50;;;;;;;8.54;79.45;96966.88;5076553;28;20173;-64
2021/10/22 07:51:52;;;;;;;9.20;2.13;;;;;;;8.64;79.66;96968.03;5076420;28;20177;-64
2021/10/22 07:54:18;;;;;;;5.67;1.80;;;;;;;8.72;78.72;96978.25;5068537;28;20225;-63
2021/10/22 07:56:44;;;;;;;5.70;1.70;;;;;;;8.80;79.35;96985.03;5084726;28;20282;-64
2021/10/22 07:59:13;;;;;;;5.67;1.53;;;;;;;8.88;78.10;96982.16;5079078;28;20601;-64
2021/10/22 08:01:39;;;;;;;8.23;2.07;;;;;;;8.59;75.60;96993.19;5090310;28;20170;-62
2021/10/22 08:04:05;;;;;;;8.00;1.77;;;;;;;8.70;76.07;96988.09;5085044;28;20184;-62
2021/10/22 08:06:31;;;;;;;6.93;1.43;;;;;;;8.75;74.93;96996.09;5082332;28;20189;-62
2021/10/22 08:08:57;;;;;;;5.40;1.40;;;;;;;8.66;74.49;96996.56;5091645;28;20164;-64
2021/10/22 08:11:23;;;;;;;3.70;1.70;;;;;;;8.86;73.61;97002.47;5078741;28;20173;-62
2021/10/22 08:13:49;;;;;;;4.60;1.30;;;;;;;8.89;72.81;97001.25;5088694;28;20227;-62
2021/10/22 08:16:15;;;;;;;3.63;1.30;;;;;;;9.10;72.73;97011.38;5081949;28;20288;-61
2021/10/22 08:18:41;;;;;;;6.33;1.73;;;;;;;9.01;71.25;97010.84;5081305;28;20208;-61
2021/10/22 08:21:35;;;;;;;10.07;1.70;;;;;;;9.18;72.14;97009.31;5087873;28;20177;-62
2021/10/22 08:24:00;;;;;;;5.90;1.60;;;;;;;9.30;70.15;97013.88;5087864;28;20565;-61
2021/10/22 08:26:25;;;;;;;5.63;1.70;;;;;;;9.35;70.75;97019.28;5086788;28;20210;-62
2021/10/22 08:28:51;;;;;;;9.30;1.87;;;;;;;9.23;70.86;97016.53;5086486;28;20174;-62
2021/10/22 08:31:17;;;;;;;5.10;1.53;;;;;;;9.20;70.05;97019.56;5087433;28;20216;-62
2021/10/22 08:33:42;;;;;;;3.67;1.60;;;;;;;9.36;69.78;97026.09;5087657;28;20656;-62
2021/10/22 08:36:10;;;;;;;8.20;1.60;;;;;;;8.85;68.78;97027.03;5079891;28;20657;-63
2021/10/22 08:38:35;;;;;;;6.77;1.53;;;;;;;9.05;69.10;97027.72;5092517;28;20714;-62
2021/10/22 08:41:03;;;;;;;5.87;1.60;;;;;;;9.21;68.69;97036.84;5089595;28;20208;-61
2021/10/22 08:43:29;;;;;;;2.30;0.93;;;;;;;8.89;67.32;97028.22;5081850;28;20185;-62
2021/10/22 08:45:56;;;;;;;5.03;1.37;;;;;;;8.61;68.36;97028.53;5089428;28;20234;-61
2021/10/22 08:48:23;;;;;;;7.50;1.87;;;;;;;8.81;69.06;97036.28;5079085;28;20189;-63
2021/10/22 08:50:49;;;;;;;8.80;1.60;;;;;;;8.46;68.08;97032.44;5090094;28;20173;-60
2021/10/22 08:53:15;;;;;;;5.17;1.20;;;;;;;8.49;69.18;97039.84;5079754;28;20197;-61
2021/10/22 08:55:41;;;;;;;7.03;2.00;;;;;;;8.30;69.87;97034.47;5086089;28;20653;-61
2021/10/22 08:58:07;;;;;;;4.50;1.60;;;;;;;8.32;69.59;97034.28;5084511;28;20205;-61
2021/10/22 09:00:33;;;;;;;5.93;1.77;;;;;;;8.67;68.99;97042.59;5080945;28;20177;-61
2021/10/22 09:03:09;;;;;;;5.13;1.30;;;;;;;8.91;69.15;97046.31;5079485;28;20204;-61
2021/10/22 09:05:34;;;;;;;7.80;1.37;;;;;;;9.16;68.84;97045.34;5078429;28;20196;-62
2021/10/22 09:08:05;;;;;;;5.30;1.60;;;;;;;9.08;69.36;97040.34;5089752;28;20172;-61
2021/10/22 09:10:33;;;;;;;3.50;1.33;;;;;;;9.07;68.86;97037.97;5083649;28;20559;-62
2021/10/22 09:13:08;;;;;;;4.73;1.23;;;;;;;8.61;69.49;97041.63;5084958;28;20170;-62
2021/10/22 09:15:37;;;;;;;4.10;1.17;;;;;;;8.84;69.05;97033.25;5082342;28;20538;-62
2021/10/22 09:18:13;;;;;;;2.20;0.90;;;;;;;8.73;68.66;97034.72;5089976;28;20207;-62
2021/10/22 09:20:54;;;;;;;5.43;1.60;;;;;;;8.80;68.17;97037.31;5083526;28;20203;-62
2021/10/22 09:23:27;;;;;;;5.17;1.30;;;;;;;8.94;68.09;97030.19;5058657;28;20634;-62
2021/10/22 09:25:53;;;;;;;6.03;1.87;;;;;;;8.99;68.56;97036.38;5087912;28;20222;-62
2021/10/22 09:28:27;;;;;;;4.10;2.10;;;;;;;8.79;68.21;97042.75;5084020;28;20622;-62
2021/10/22 09:30:53;;;;;;;4.13;1.53;;;;;;;9.07;68.82;97046.63;5083016;28;20173;-61
2021/10/22 09:33:22;;;;;;;4.60;1.40;;;;;;;8.74;68.07;97044.19;5085149;28;20172;-62
2021/10/22 09:35:51;;;;;;;5.57;1.73;;;;;;;9.20;67.76;97043.09;5088458;28;20196;-62
2021/10/22 09:38:28;;;;;;;4.10;1.50;;;;;;;9.21;67.44;97042.09;5079061;28;20242;-62
2021/10/22 09:40:56;;;;;;;7.90;1.43;;;;;;;9.17;65.90;97044.34;5074670;28;20168;-62
2021/10/22 09:43:29;;;;;;;2.97;1.10;;;;;;;9.23;64.64;97042.69;5080298;28;20181;-62
2021/10/22 09:46:14;;;;;;;4.53;1.10;;;;;;;9.16;65.49;97039.31;5090485;28;20680;-62
2021/10/22 09:48:43;;;;;;;4.20;1.20;;;;;;;9.32;63.51;97041.41;5088449;28;20646;-62
2021/10/22 09:51:23;;;;;;;3.07;1.53;;;;;;;9.18;62.57;97047.75;5086713;28;20174;-61
2021/10/22 09:53:49;;;;;;;6.60;1.50;;;;;;;9.21;62.67;97044.69;5079533;28;20272;-62
2021/10/22 09:56:21;;;;;;;3.13;1.50;;;;;;;9.10;63.02;97033.09;5084509;28;20754;-62
2021/10/22 09:59:03;;;;;;;6.30;1.10;;;;;;;9.03;61.09;97042.78;5089267;28;20193;-62
2021/10/22 10:01:40;;;;;;;2.87;1.13;;;;;;;9.04;59.99;97039.19;5088722;28;20702;-62
2021/10/22 10:04:07;;;;;;;7.07;1.60;;;;;;;9.04;58.97;97033.94;5108920;28;20168;-62
2021/10/22 10:06:37;;;;;;;5.53;1.23;;;;;;;8.91;58.80;97033.25;5084448;28;20169;-62
2021/10/22 10:09:08;;;;;;;4.17;1.10;;;;;;;8.63;58.18;97039.59;5080103;28;20173;-61
2021/10/22 10:11:39;;;;;;;3.40;1.10;;;;;;;8.86;57.93;97035.69;5076170;28;20173;-62
2021/10/22 10:14:05;;;;;;;4.63;1.20;;;;;;;9.02;57.75;97030.75;5086795;28;20173;-61
2021/10/22 10:16:32;;;;;;;3.23;1.40;;;;;;;9.33;56.38;97029.94;5089777;28;20174;-60
2021/10/22 10:19:10;;;;;;;2.03;1.10;;;;;;;9.59;56.67;97039.38;5084003;28;20203;-62
2021/10/22 10:21:42;;;;;;;3.07;0.80;;;;;;;9.31;56.09;97041.59;5085127;28;20204;-61
2021/10/22 10:24:10;;;;;;;3.30;0.97;;;;;;;9.50;56.29;97038.88;5086044;28;20664;-61
2021/10/22 10:26:36;;;;;;;2.67;1.10;;;;;;;9.68;55.74;97034.69;5084531;28;20668;-61
2021/10/22 10:29:06;;;;;;;5.47;1.20;;;;;;;9.44;54.77;97028.44;5081984;28;20207;-61
2021/10/22 10:31:41;;;;;;;1.23;0.80;;;;;;;9.11;54.06;97031.28;5088760;28;20259;-63
2021/10/22 10:34:28;;;;;;;2.83;1.10;;;;;;;9.33;54.87;97035.16;5074757;28;20183;-61
2021/10/22 10:36:55;;;;;;;2.10;0.90;;;;;;;9.56;53.95;97026.75;5082870;28;20176;-61
2021/10/22 10:39:46;;;;;;;2.43;0.83;;;;;;;9.90;52.90;97039.34;5067083;28;20289;-62
2021/10/22 10:42:40;;;;;;;1.93;0.80;;;;;;;9.85;52.46;97033.16;5086526;28;20260;-62
2021/10/22 10:45:29;;;;;;;1.10;0.90;;;;;;;9.95;52.66;97034.25;5083845;28;20208;-62
2021/10/22 10:48:18;;;;;;;1.67;1.00;;;;;;;10.03;51.84;97033.94;5073861;28;20190;-60
2021/10/22 10:50:55;;;;;;;3.83;0.87;;;;;;;10.18;50.39;97028.41;5076886;28;20185;-62
2021/10/22 10:53:38;;;;;;;5.40;1.20;;;;;;;10.35;50.34;97032.06;5084551;28;20173;-61
2021/10/22 10:56:22;;;;;;;2.37;0.93;;;;;;;10.41;51.27;97030.38;5088307;28;20250;-62
2021/10/22 10:58:48;;;;;;;4.53;1.00;;;;;;;10.54;49.91;97029.41;5069626;28;20666;-63
2021/10/22 11:01:22;;;;;;;1.40;0.90;;;;;;;10.15;49.90;97030.63;5087712;28;20168;-62
2021/10/22 11:03:48;;;;;;;2.30;1.00;;;;;;;10.01;50.31;97033.38;5085645;28;20178;-63
2021/10/22 11:06:28;;;;;;;2.30;1.00;;;;;;;10.34;48.86;97033.06;5072890;28;20197;-61
2021/10/22 11:08:54;;;;;;;3.60;1.13;;;;;;;10.28;48.93;97030.53;5077075;28;20168;-62
2021/10/22 11:11:29;;;;;;;1.93;1.10;;;;;;;10.51;49.19;97038.53;5066633;28;20553;-62
2021/10/22 11:14:10;;;;;;;2.23;1.00;;;;;;;10.60;47.52;97036.38;5067308;28;20176;-62
2021/10/22 11:16:49;;;;;;;4.90;1.17;;;;;;;10.77;47.79;97040.81;5088829;28;20634;-62
2021/10/22 11:19:22;;;;;;;2.70;1.20;;;;;;;10.71;46.98;97039.06;5085582;28;20600;-62
2021/10/22 11:21:51;;;;;;;3.67;0.90;;;;;;;10.55;48.12;97042.28;5057562;28;20726;-62
2021/10/22 11:24:18;;;;;;;2.03;1.10;;;;;;;10.88;47.58;97044.50;5087654;28;20221;-63
2021/10/22 11:26:52;;;;;;;3.23;1.10;;;;;;;10.95;47.27;97047.06;5076987;28;20220;-64
2021/10/22 11:29:19;;;;;;;2.37;1.00;;;;;;;10.98;45.67;97047.41;5076047;28;20259;-64
2021/10/22 11:31:49;;;;;;;1.23;0.67;;;;;;;10.48;46.20;97043.41;5091136;28;20665;-65
2021/10/22 11:34:18;;;;;;;2.20;1.00;;;;;;;10.68;46.88;97044.78;5079761;28;20714;-64
2021/10/22 11:36:57;;;;;;;1.37;0.80;;;;;;;10.61;46.85;97045.84;5088393;28;20185;-65
2021/10/22 11:39:27;;;;;;;2.00;0.83;;;;;;;10.73;46.11;97049.34;5072784;28;20752;-63
2021/10/22 11:42:29;;;;;;;2.40;0.73;;;;;;;10.41;46.09;97046.91;5081958;28;20259;-64
2021/10/22 11:44:59;;;;;;;1.63;0.87;;;;;;;10.53;46.37;97051.41;5087874;28;20672;-63
2021/10/22 11:47:44;;;;;;;3.00;1.10;;;;;;;10.89;44.91;97045.31;5077335;28;20234;-63
2021/10/22 11:50:23;;;;;;;3.43;1.30;;;;;;;10.96;46.21;97053.91;5078498;28;20587;-63